Time;durP1;ratioP1;P1;durP2;ratioP2;P2;SDS_P1;SDS_P2;PMS_P1;PMS_P2;Temp;Humidity;BMP_temperature;BMP_pressure;BME280_temperature;BME280_humidity;BME280_pressure;Samples;Min_cycle;Max_cycle;Signal;HPM_P1;HPM_P2
2022/12/31 00:02:14;;;;;;;63.13;27.30;;;12.70;63.10;;;;;;4991196;28;20109;-91
2022/12/31 00:04:40;;;;;;;52.80;25.98;;;12.70;63.10;;;;;;4985833;28;20125;-93
2022/12/31 00:07:05;;;;;;;51.45;25.20;;;12.70;63.00;;;;;;4990988;28;20446;-90
2022/12/31 00:09:31;;;;;;;51.08;24.38;;;12.60;63.50;;;;;;4983882;28;20030;-93
2022/12/31 00:11:57;;;;;;;54.13;24.70;;;12.70;63.10;;;;;;4990980;28;20026;-91
2022/12/31 00:14:22;;;;;;;50.42;22.98;;;12.80;62.60;;;;;;4991049;28;20390;-93
2022/12/31 00:16:48;;;;;;;53.78;25.30;;;12.60;62.80;;;;;;4986126;28;20027;-93
2022/12/31 00:19:14;;;;;;;50.28;24.92;;;12.50;63.70;;;;;;4991028;28;20027;-93
2022/12/31 00:21:40;;;;;;;54.97;24.08;;;12.60;63.20;;;;;;4984887;28;20035;-93
2022/12/31 00:24:06;;;;;;;47.85;22.73;;;12.70;62.90;;;;;;4990642;28;20058;-91
2022/12/31 00:26:33;;;;;;;48.97;23.70;;;13.10;62.50;;;;;;4983791;28;20043;-94
2022/12/31 00:29:02;;;;;;;48.63;22.55;;;13.30;61.60;;;;;;4990604;28;20074;-91
2022/12/31 00:31:33;;;;;;;42.55;20.42;;;13.40;61.60;;;;;;4990603;28;20026;-92
2022/12/31 00:33:59;;;;;;;43.78;21.27;;;13.40;61.50;;;;;;4990721;28;20433;-93
2022/12/31 00:36:31;;;;;;;42.47;20.42;;;13.50;61.20;;;;;;4990870;28;20423;-92
2022/12/31 00:38:58;;;;;;;45.13;20.52;;;13.50;61.50;;;;;;4990414;28;20051;-93
2022/12/31 00:41:24;;;;;;;48.30;21.98;;;13.50;61.40;;;;;;4990324;28;20022;-92
2022/12/31 00:43:50;;;;;;;45.13;22.60;;;13.50;61.60;;;;;;4985773;28;20402;-93
2022/12/31 00:46:16;;;;;;;55.30;22.67;;;13.60;60.80;;;;;;4990371;28;20474;-93
2022/12/31 00:48:42;;;;;;;49.47;21.77;;;13.50;61.30;;;;;;4985143;28;20023;-92
2022/12/31 00:51:10;;;;;;;53.60;24.30;;;13.40;61.40;;;;;;4990717;28;20508;-92
2022/12/31 00:53:37;;;;;;;59.90;24.08;;;13.30;61.50;;;;;;4983920;28;20019;-93
2022/12/31 00:56:14;;;;;;;58.60;24.95;;;13.20;62.20;;;;;;4990105;28;20026;-89
2022/12/31 00:58:40;;;;;;;62.30;25.88;;;13.30;61.30;;;;;;4984986;28;20037;-93
2022/12/31 01:01:18;;;;;;;68.97;26.02;;;13.00;62.60;;;;;;4990388;28;20118;-94
2022/12/31 01:03:46;;;;;;;82.90;30.35;;;12.70;63.50;;;;;;4984689;28;20037;-92
2022/12/31 01:06:12;;;;;;;102.72;32.20;;;12.50;63.60;;;;;;4990133;28;20046;-93
2022/12/31 01:08:38;;;;;;;134.05;38.13;;;12.70;64.00;;;;;;4983876;28;20378;-93
2022/12/31 01:11:23;;;;;;;124.22;36.50;;;12.90;63.60;;;;;;4990535;28;20023;-94
2022/12/31 01:13:55;;;;;;;164.30;42.50;;;12.90;63.30;;;;;;4985216;28;20351;-93
2022/12/31 01:16:27;;;;;;;140.90;41.55;;;13.00;63.50;;;;;;4990255;28;20037;-93
2022/12/31 01:18:53;;;;;;;137.80;40.55;;;13.10;62.80;;;;;;4986692;28;20023;-92
2022/12/31 01:21:20;;;;;;;176.13;45.13;;;12.90;63.60;;;;;;4990353;28;20031;-93
2022/12/31 01:23:46;;;;;;;152.25;40.28;;;12.80;63.50;;;;;;4984831;28;20023;-93
2022/12/31 01:26:13;;;;;;;189.10;47.25;;;12.90;63.20;;;;;;4989993;28;20093;-94
2022/12/31 01:28:42;;;;;;;157.68;43.40;;;13.00;63.50;;;;;;4983791;28;20113;-92
2022/12/31 01:31:11;;;;;;;178.57;43.75;;;13.10;62.80;;;;;;4989845;28;20023;-93
2022/12/31 01:33:37;;;;;;;164.75;42.22;;;12.90;63.10;;;;;;4983505;28;20367;-94
2022/12/31 01:36:14;;;;;;;187.60;42.90;;;12.90;63.70;;;;;;4990048;28;20027;-96
2022/12/31 01:38:41;;;;;;;179.63;41.78;;;12.90;63.40;;;;;;4983552;28;20031;-94
2022/12/31 01:41:10;;;;;;;145.77;40.20;;;12.80;63.60;;;;;;4990526;28;20030;-91
2022/12/31 01:43:47;;;;;;;147.98;40.20;;;12.70;63.80;;;;;;4983257;28;20027;-92
2022/12/31 01:46:28;;;;;;;138.02;38.10;;;12.80;63.80;;;;;;4989841;28;20034;-94
2022/12/31 01:48:57;;;;;;;177.93;40.92;;;12.80;63.60;;;;;;4985490;28;20097;-91
2022/12/31 01:51:26;;;;;;;150.60;38.55;;;13.00;63.50;;;;;;4990350;28;20023;-93
2022/12/31 01:53:52;;;;;;;137.98;39.17;;;13.00;63.10;;;;;;4985545;28;20031;-92
2022/12/31 01:56:20;;;;;;;162.50;40.50;;;13.00;63.10;;;;;;4990901;28;20033;-92
2022/12/31 01:58:49;;;;;;;164.15;40.20;;;13.00;63.40;;;;;;4985851;28;20039;-92
2022/12/31 02:01:22;;;;;;;145.10;38.35;;;12.90;63.70;;;;;;4990993;28;20030;-93
2022/12/31 02:03:49;;;;;;;147.60;38.10;;;13.00;63.10;;;;;;4986432;28;20031;-93
2022/12/31 02:06:21;;;;;;;132.10;37.08;;;12.90;64.20;;;;;;4991370;28;20031;-92
2022/12/31 02:08:47;;;;;;;133.63;35.38;;;12.90;63.30;;;;;;4985015;28;20034;-91
2022/12/31 02:11:28;;;;;;;137.07;38.00;;;12.60;63.40;;;;;;4989596;28;20031;-93
2022/12/31 02:13:57;;;;;;;137.65;38.75;;;12.30;64.90;;;;;;4985419;28;20117;-92
2022/12/31 02:16:51;;;;;;;119.22;34.03;;;12.20;65.30;;;;;;4989396;28;20019;-91
2022/12/31 02:19:37;;;;;;;122.13;38.53;;;12.30;64.50;;;;;;4988421;28;20034;-91
2022/12/31 02:22:21;;;;;;;130.38;37.90;;;12.60;64.20;;;;;;4986670;28;20130;-92
2022/12/31 02:25:08;;;;;;;107.65;33.17;;;12.80;63.80;;;;;;4985639;28;20819;-93
2022/12/31 02:28:10;;;;;;;111.05;34.92;;;12.60;64.00;;;;;;4976820;28;20031;-94
2022/12/31 02:30:39;;;;;;;97.95;32.78;;;12.40;64.60;;;;;;4983863;28;20424;-93
2022/12/31 02:33:32;;;;;;;108.57;35.13;;;12.30;64.40;;;;;;5015768;28;20044;-94
2022/12/31 02:36:12;;;;;;;101.93;33.17;;;12.30;64.90;;;;;;5012368;28;20018;-92
2022/12/31 02:38:45;;;;;;;95.75;32.65;;;12.40;65.10;;;;;;5015535;28;20488;-93
2022/12/31 02:41:48;;;;;;;100.60;33.10;;;12.70;63.70;;;;;;5015390;28;20038;-93
2022/12/31 02:43:58;;;;;;;102.75;33.45;;;12.90;63.40;;;;;;5016413;28;20469;-92
2022/12/31 02:46:40;;;;;;;97.20;32.60;;;13.20;62.70;;;;;;5015384;28;20030;-93
2022/12/31 02:49:20;;;;;;;82.20;29.60;;;13.40;62.00;;;;;;5013189;28;20026;-93
2022/12/31 02:51:57;;;;;;;96.03;32.20;;;13.30;62.00;;;;;;5009967;28;20034;-93
2022/12/31 02:54:28;;;;;;;75.55;28.55;;;12.80;63.20;;;;;;5015522;28;20389;-93
2022/12/31 02:57:14;;;;;;;78.65;30.85;;;12.80;63.00;;;;;;5011423;28;20485;-93
2022/12/31 03:02:46;;;;;;;71.57;28.38;;;12.90;62.80;;;;;;5017117;28;20060;-94
2022/12/31 03:05:16;;;;;;;71.40;27.50;;;12.90;63.00;;;;;;5013826;28;20053;-93
2022/12/31 03:07:50;;;;;;;71.25;28.40;;;13.00;62.20;;;;;;5010002;28;20030;-92
2022/12/31 03:10:16;;;;;;;82.55;30.52;;;12.60;63.50;;;;;;5016372;28;20061;-93
2022/12/31 03:12:46;;;;;;;76.72;29.67;;;12.80;63.30;;;;;;5010498;28;20025;-93
2022/12/31 03:15:23;;;;;;;80.30;29.73;;;13.10;62.90;;;;;;5016261;28;20069;-92
2022/12/31 03:18:10;;;;;;;83.43;30.00;;;13.10;62.50;;;;;;5011314;28;20114;-91
2022/12/31 03:23:32;;;;;;;71.85;28.98;;;13.30;62.00;;;;;;5017103;28;20087;-94
2022/12/31 03:25:59;;;;;;;83.68;28.95;;;13.30;62.10;;;;;;5010964;28;20393;-94
2022/12/31 03:28:27;;;;;;;80.35;29.23;;;13.30;61.70;;;;;;5014620;28;20022;-92
2022/12/31 03:30:59;;;;;;;86.00;29.95;;;13.30;61.80;;;;;;5014559;28;20060;-94
2022/12/31 03:33:28;;;;;;;72.07;28.60;;;13.20;61.60;;;;;;5014743;28;20072;-91
2022/12/31 03:35:54;;;;;;;95.32;30.13;;;12.90;62.70;;;;;;5014158;28;20053;-94
2022/12/31 03:38:20;;;;;;;75.05;27.02;;;12.80;63.00;;;;;;5014466;28;20473;-94
2022/12/31 03:40:48;;;;;;;94.78;30.02;;;12.90;63.30;;;;;;5008938;28;20489;-92
2022/12/31 03:43:15;;;;;;;91.32;28.65;;;13.10;62.70;;;;;;5014288;28;20033;-91
2022/12/31 03:45:41;;;;;;;100.72;30.02;;;13.10;62.60;;;;;;5008188;28;20038;-93
2022/12/31 03:48:08;;;;;;;101.57;29.02;;;13.20;62.30;;;;;;5014275;28;20037;-92
2022/12/31 03:50:34;;;;;;;97.72;29.77;;;13.20;62.20;;;;;;5007617;28;20025;-93
2022/12/31 03:53:01;;;;;;;92.20;31.30;;;13.30;62.30;;;;;;5014543;28;20030;-92
2022/12/31 03:55:26;;;;;;;98.20;29.52;;;13.10;62.40;;;;;;5006316;28;20112;-92
2022/12/31 03:57:52;;;;;;;92.53;29.33;;;13.10;62.20;;;;;;5014155;28;20168;-92
2022/12/31 04:00:20;;;;;;;70.00;24.67;;;12.90;62.50;;;;;;5013916;28;20178;-91
2022/12/31 04:02:47;;;;;;;79.78;27.13;;;12.80;63.00;;;;;;5008750;28;20030;-90
2022/12/31 04:05:13;;;;;;;81.25;26.98;;;12.50;64.10;;;;;;5013718;28;20026;-92
2022/12/31 04:07:39;;;;;;;89.78;26.95;;;12.70;63.50;;;;;;5007591;28;20030;-94
2022/12/31 04:10:06;;;;;;;83.82;27.02;;;12.70;63.60;;;;;;5014813;28;20026;-91
2022/12/31 04:12:32;;;;;;;95.60;28.73;;;12.60;63.80;;;;;;5007623;28;20033;-92
2022/12/31 04:14:58;;;;;;;86.10;27.25;;;12.60;63.70;;;;;;5015671;28;20026;-93
2022/12/31 04:17:27;;;;;;;90.28;25.95;;;12.80;63.40;;;;;;5014717;28;20022;-91
2022/12/31 04:19:53;;;;;;;93.47;27.80;;;13.00;63.40;;;;;;5015238;28;20121;-93
2022/12/31 04:22:19;;;;;;;93.95;27.67;;;13.10;62.70;;;;;;5014866;28;20117;-93
2022/12/31 04:24:45;;;;;;;132.93;31.77;;;13.10;62.30;;;;;;5009130;28;20087;-93
2022/12/31 04:27:13;;;;;;;111.25;28.08;;;12.80;63.10;;;;;;5013551;28;20034;-92
2022/12/31 04:29:39;;;;;;;89.30;26.92;;;12.60;64.00;;;;;;5007291;28;20030;-92
2022/12/31 04:32:06;;;;;;;112.47;28.73;;;12.30;65.20;;;;;;5013677;28;20026;-93
2022/12/31 04:34:32;;;;;;;92.13;27.90;;;12.10;66.10;;;;;;5006438;28;20026;-95
2022/12/31 04:36:58;;;;;;;117.30;32.33;;;12.30;65.20;;;;;;5013629;28;20385;-93
2022/12/31 04:39:24;;;;;;;101.95;29.85;;;12.50;65.50;;;;;;5013705;28;20056;-91
2022/12/31 04:41:49;;;;;;;121.28;34.03;;;12.80;64.00;;;;;;5010051;28;20555;-94
2022/12/31 04:44:16;;;;;;;84.30;27.52;;;12.70;64.80;;;;;;5014828;28;20026;-92
2022/12/31 04:46:42;;;;;;;107.97;30.92;;;12.50;64.30;;;;;;5008353;28;20408;-92
2022/12/31 04:49:10;;;;;;;101.00;28.25;;;12.10;66.20;;;;;;5014806;28;20113;-93
2022/12/31 04:51:36;;;;;;;108.97;27.83;;;12.30;65.70;;;;;;5007943;28;20036;-90
2022/12/31 04:54:03;;;;;;;104.82;29.05;;;12.50;65.00;;;;;;5014460;28;20068;-92
2022/12/31 04:56:30;;;;;;;95.32;26.10;;;12.60;65.00;;;;;;5006143;28;20030;-90
2022/12/31 04:58:55;;;;;;;96.25;27.27;;;12.70;64.60;;;;;;5013004;28;20477;-92
2022/12/31 05:01:22;;;;;;;94.88;26.92;;;12.70;64.60;;;;;;5013180;28;20041;-91
2022/12/31 05:03:48;;;;;;;122.82;31.63;;;13.00;63.40;;;;;;5007838;28;20018;-93
2022/12/31 05:06:22;;;;;;;119.35;28.73;;;13.00;63.80;;;;;;4997015;28;20057;-93
2022/12/31 05:08:48;;;;;;;89.97;27.77;;;12.90;64.00;;;;;;5008164;28;20034;-94
2022/12/31 05:11:14;;;;;;;99.97;28.25;;;12.80;63.60;;;;;;5013251;28;20033;-91
2022/12/31 05:13:40;;;;;;;98.20;26.52;;;12.80;64.20;;;;;;5007292;28;20026;-92
2022/12/31 05:16:07;;;;;;;95.07;26.08;;;12.80;63.90;;;;;;5012967;28;20057;-92
2022/12/31 05:18:34;;;;;;;84.82;25.50;;;12.60;64.50;;;;;;5006454;28;20034;-93
2022/12/31 05:21:00;;;;;;;89.82;24.95;;;12.70;64.30;;;;;;5013278;28;20040;-93
2022/12/31 05:23:26;;;;;;;100.18;26.48;;;12.80;63.90;;;;;;5012874;28;20018;-91
2022/12/31 05:25:52;;;;;;;92.60;26.48;;;12.70;64.30;;;;;;5013754;28;20030;-93
2022/12/31 05:28:18;;;;;;;70.78;23.17;;;12.70;64.10;;;;;;5014911;28;20033;-93
2022/12/31 05:30:49;;;;;;;89.22;25.52;;;12.60;64.30;;;;;;5008251;28;20034;-93
2022/12/31 05:33:14;;;;;;;78.95;23.52;;;12.30;65.80;;;;;;5014791;28;20030;-93
2022/12/31 05:35:40;;;;;;;77.75;23.98;;;12.20;66.20;;;;;;5008772;28;20032;-93
2022/12/31 05:38:14;;;;;;;74.20;24.10;;;12.60;65.10;;;;;;5014324;28;20469;-92
2022/12/31 05:40:40;;;;;;;94.45;26.13;;;12.70;64.50;;;;;;5006654;28;20046;-92
2022/12/31 05:43:05;;;;;;;75.00;24.27;;;12.80;64.40;;;;;;5012858;28;20025;-92
2022/12/31 05:45:31;;;;;;;85.38;25.63;;;13.00;63.70;;;;;;5005675;28;20501;-93
2022/12/31 05:47:57;;;;;;;118.90;28.08;;;13.20;63.30;;;;;;5012610;28;20034;-93
2022/12/31 05:50:23;;;;;;;102.40;27.77;;;13.50;62.80;;;;;;5012781;28;20026;-93
2022/12/31 05:52:48;;;;;;;111.05;28.85;;;13.40;62.70;;;;;;5024247;28;20030;-93
2022/12/31 05:55:14;;;;;;;107.32;30.25;;;13.30;63.20;;;;;;5012743;28;20022;-93
2022/12/31 05:57:40;;;;;;;131.57;33.40;;;13.40;62.50;;;;;;5008246;28;20115;-91
2022/12/31 06:00:08;;;;;;;102.20;31.75;;;13.40;62.60;;;;;;5017221;28;20314;-93
2022/12/31 06:02:34;;;;;;;135.02;34.88;;;13.40;63.00;;;;;;5010793;28;20164;-94
2022/12/31 06:04:59;;;;;;;100.65;29.85;;;13.30;63.30;;;;;;5018445;28;20116;-94
2022/12/31 06:07:29;;;;;;;119.78;33.97;;;13.30;62.60;;;;;;5018038;28;20033;-93
2022/12/31 06:09:55;;;;;;;143.15;37.58;;;13.10;63.20;;;;;;5017494;28;20481;-93
2022/12/31 06:12:21;;;;;;;114.93;31.83;;;13.10;63.50;;;;;;5016042;28;20030;-93
2022/12/31 06:14:46;;;;;;;109.90;35.47;;;13.30;63.10;;;;;;5010949;28;20033;-91
2022/12/31 06:17:12;;;;;;;127.80;33.53;;;13.20;63.10;;;;;;5016574;28;20413;-93
2022/12/31 06:19:40;;;;;;;100.13;30.23;;;13.10;63.60;;;;;;5009596;28;20034;-93
2022/12/31 06:22:06;;;;;;;125.50;30.20;;;13.20;63.40;;;;;;5015960;28;20034;-92
2022/12/31 06:24:31;;;;;;;102.85;28.73;;;13.50;62.70;;;;;;5008826;28;20022;-94
2022/12/31 06:26:57;;;;;;;130.23;32.10;;;13.60;62.10;;;;;;5016983;28;20037;-93
2022/12/31 06:29:23;;;;;;;97.45;27.65;;;13.60;62.70;;;;;;5016725;28;20026;-92
2022/12/31 06:31:48;;;;;;;115.55;29.02;;;13.70;61.90;;;;;;5012347;28;20442;-93
2022/12/31 06:34:14;;;;;;;114.88;30.02;;;13.80;61.80;;;;;;5017157;28;20022;-94
2022/12/31 06:36:40;;;;;;;109.60;27.65;;;13.80;61.80;;;;;;5011310;28;20381;-92
2022/12/31 06:39:11;;;;;;;151.07;31.80;;;13.80;61.50;;;;;;5016846;28;20073;-93
2022/12/31 06:41:36;;;;;;;118.38;30.92;;;13.80;61.50;;;;;;5009286;28;20034;-91
2022/12/31 06:44:02;;;;;;;89.53;25.58;;;13.70;62.00;;;;;;5015360;28;20030;-93
2022/12/31 06:46:28;;;;;;;91.93;28.15;;;13.70;61.60;;;;;;5007781;28;20037;-92
2022/12/31 06:48:54;;;;;;;117.68;31.08;;;13.40;62.20;;;;;;5015293;28;20044;-93
2022/12/31 06:51:21;;;;;;;128.15;31.77;;;13.40;63.30;;;;;;5015455;28;20112;-93
2022/12/31 06:53:49;;;;;;;100.70;30.83;;;13.50;62.80;;;;;;5010042;28;20022;-93
2022/12/31 06:56:24;;;;;;;114.63;31.50;;;13.70;62.40;;;;;;5016409;28;20072;-92
2022/12/31 06:58:50;;;;;;;110.88;30.30;;;13.60;62.60;;;;;;5010689;28;20022;-93
2022/12/31 07:01:19;;;;;;;166.23;34.33;;;13.70;62.40;;;;;;5015305;28;20026;-94
2022/12/31 07:08:07;;;;;;;114.47;29.63;;;13.50;62.30;;;;;;4997342;28;20484;-92
2022/12/31 07:14:09;;;;;;;100.63;28.85;;;13.70;62.60;;;;;;4939851;29;20044;-94
2022/12/31 07:16:40;;;;;;;141.38;31.85;;;13.90;62.10;;;;;;4921154;29;20020;-93
2022/12/31 07:19:38;;;;;;;101.80;27.38;;;14.00;61.80;;;;;;4920877;29;20035;-94
2022/12/31 07:22:04;;;;;;;189.18;36.08;;;13.90;61.40;;;;;;4936513;29;20046;-93
2022/12/31 07:24:30;;;;;;;106.95;33.75;;;13.70;62.20;;;;;;4920574;29;20036;-92
2022/12/31 07:27:27;;;;;;;155.93;34.33;;;13.80;61.70;;;;;;4937365;29;20384;-94
2022/12/31 07:30:12;;;;;;;91.05;28.58;;;13.80;62.10;;;;;;4927268;29;20035;-92
2022/12/31 07:32:56;;;;;;;104.57;28.98;;;14.00;61.00;;;;;;4939925;29;20032;-91
2022/12/31 07:35:39;;;;;;;109.68;30.88;;;14.00;61.80;;;;;;4936209;29;20046;-87
2022/12/31 07:38:28;;;;;;;120.68;30.52;;;13.90;62.00;;;;;;4933197;28;20031;-88
2022/12/31 07:41:26;;;;;;;132.30;30.95;;;13.70;62.40;;;;;;4939216;29;20051;-93
2022/12/31 07:43:55;;;;;;;133.52;31.73;;;13.80;62.10;;;;;;4942882;29;20040;-92
2022/12/31 07:46:38;;;;;;;143.48;32.55;;;13.70;62.30;;;;;;4920153;29;20044;-90
2022/12/31 07:49:10;;;;;;;102.68;30.48;;;13.80;62.60;;;;;;4936690;29;20048;-90
2022/12/31 07:51:36;;;;;;;92.35;28.55;;;14.00;62.30;;;;;;4975518;28;20041;-91
2022/12/31 07:54:02;;;;;;;144.77;36.95;;;14.00;61.80;;;;;;4992095;28;20077;-91
2022/12/31 07:56:28;;;;;;;127.72;34.53;;;14.00;62.10;;;;;;4984854;28;20015;-92
2022/12/31 07:59:11;;;;;;;115.40;34.72;;;14.00;61.80;;;;;;4994863;28;20018;-90
2022/12/31 08:01:52;;;;;;;124.00;46.15;;;14.00;62.40;;;;;;5007397;28;20033;-90
2022/12/31 08:04:53;;;;;;;122.10;42.20;;;14.00;62.40;;;;;;4995871;28;20110;-90
2022/12/31 08:07:31;;;;;;;93.97;29.75;;;14.10;63.00;;;;;;4989511;28;20134;-91
2022/12/31 08:10:26;;;;;;;128.80;38.95;;;14.30;61.70;;;;;;5006340;28;20084;-90
2022/12/31 08:12:59;;;;;;;98.13;33.65;;;14.50;61.00;;;;;;5003877;28;20046;-90
2022/12/31 08:15:25;;;;;;;90.45;27.05;;;14.60;60.60;;;;;;4989768;28;20044;-90
2022/12/31 08:17:51;;;;;;;91.53;31.52;;;14.60;61.30;;;;;;4980957;28;20114;-89
2022/12/31 08:20:17;;;;;;;92.78;35.67;;;14.60;61.10;;;;;;4994645;28;20120;-93
2022/12/31 08:22:51;;;;;;;74.43;26.80;;;14.60;60.80;;;;;;4974201;28;20018;-90
2022/12/31 08:25:17;;;;;;;71.55;24.83;;;14.70;61.30;;;;;;4974109;28;20117;-92
2022/12/31 08:28:14;;;;;;;88.85;26.80;;;14.70;60.40;;;;;;4968437;28;20033;-89
2022/12/31 08:31:09;;;;;;;75.28;25.50;;;14.50;60.90;;;;;;4969084;28;20493;-90
2022/12/31 08:34:03;;;;;;;69.75;24.83;;;14.50;61.20;;;;;;4955206;28;20046;-89
2022/12/31 08:36:37;;;;;;;68.53;25.35;;;14.40;61.50;;;;;;4972603;28;20414;-89
2022/12/31 08:39:46;;;;;;;70.35;24.65;;;14.40;60.70;;;;;;4965101;28;20449;-89
2022/12/31 08:42:29;;;;;;;58.92;23.05;;;14.70;60.30;;;;;;4972318;28;20386;-88
2022/12/31 08:45:12;;;;;;;58.63;23.40;;;14.80;60.00;;;;;;4972198;28;20035;-88
2022/12/31 08:47:49;;;;;;;60.55;24.27;;;15.10;59.50;;;;;;4972167;28;20031;-89
2022/12/31 08:50:17;;;;;;;53.28;22.20;;;15.10;59.30;;;;;;4972570;28;20034;-89
2022/12/31 08:52:44;;;;;;;59.08;25.00;;;14.90;59.90;;;;;;4967617;28;20027;-89
2022/12/31 08:55:17;;;;;;;60.92;24.88;;;14.90;60.00;;;;;;4955606;28;20027;-89
2022/12/31 08:57:58;;;;;;;60.63;24.60;;;14.90;60.20;;;;;;4953550;28;20054;-89
2022/12/31 09:00:26;;;;;;;64.03;24.88;;;15.00;59.50;;;;;;4957708;28;20031;-91
2022/12/31 09:02:57;;;;;;;57.15;23.92;;;14.70;60.20;;;;;;4971601;28;20484;-93
2022/12/31 09:05:35;;;;;;;56.22;23.08;;;14.70;59.80;;;;;;4971929;28;20023;-89
2022/12/31 09:08:04;;;;;;;57.15;22.92;;;14.60;60.90;;;;;;4972979;28;20106;-88
2022/12/31 09:11:08;;;;;;;62.38;24.95;;;14.70;60.50;;;;;;4988353;28;20045;-89
2022/12/31 09:14:03;;;;;;;66.55;26.50;;;14.80;60.80;;;;;;4995915;28;20026;-90
2022/12/31 09:17:08;;;;;;;59.10;25.83;;;14.80;60.80;;;;;;4968312;28;20033;-90
2022/12/31 09:19:34;;;;;;;77.82;32.67;;;14.80;60.00;;;;;;5009775;28;20026;-90
2022/12/31 09:22:00;;;;;;;70.28;31.13;;;14.60;60.70;;;;;;5000218;28;20071;-89
2022/12/31 09:24:26;;;;;;;77.88;37.90;;;14.50;60.50;;;;;;4983507;28;20042;-88
2022/12/31 09:27:04;;;;;;;74.75;35.13;;;14.00;62.00;;;;;;4991273;28;20145;-88
2022/12/31 09:29:54;;;;;;;68.28;33.90;;;13.80;62.50;;;;;;4989795;28;20031;-89
2022/12/31 09:32:23;;;;;;;;;;;13.30;64.20;;;;;;4989521;28;20474;-89
2022/12/31 09:34:53;;;;;;;64.05;29.02;;;13.50;63.70;;;;;;5007904;28;19913;-88
2022/12/31 09:37:44;;;;;;;79.85;35.75;;;13.60;63.70;;;;;;5007704;28;20023;-92
2022/12/31 09:40:37;;;;;;;105.38;50.42;;;13.70;63.40;;;;;;4975755;28;20050;-89
2022/12/31 09:43:29;;;;;;;74.68;35.45;;;14.10;62.50;;;;;;4992331;28;20030;-87
2022/12/31 09:46:20;;;;;;;58.72;27.65;;;14.30;62.60;;;;;;5009461;28;20037;-88
2022/12/31 09:49:08;;;;;;;68.45;29.73;;;14.50;61.70;;;;;;5012929;28;20082;-88
2022/12/31 09:52:07;;;;;;;56.45;26.23;;;13.90;62.60;;;;;;4997303;28;20022;-94
2022/12/31 09:54:53;;;;;;;57.17;26.58;;;13.90;63.60;;;;;;4992420;28;20030;-88
2022/12/31 09:57:34;;;;;;;58.88;26.75;;;13.80;63.10;;;;;;4977392;28;20014;-89
2022/12/31 10:00:12;;;;;;;290.38;195.23;;;13.80;63.40;;;;;;4985727;28;20035;-92
2022/12/31 10:03:14;;;;;;;192.02;107.80;;;13.90;63.50;;;;;;4980146;28;20019;-86
2022/12/31 10:06:21;;;;;;;160.50;103.28;;;13.90;63.20;;;;;;4980154;28;20031;-88
2022/12/31 10:09:12;;;;;;;66.80;44.03;;;14.40;62.40;;;;;;4914958;29;20075;-93
2022/12/31 10:12:03;;;;;;;116.85;73.40;;;14.80;62.00;;;;;;4934381;29;20103;-90
2022/12/31 10:14:52;;;;;;;159.55;109.88;;;14.90;60.80;;;;;;4918462;29;20028;-89
2022/12/31 10:17:45;;;;;;;108.07;71.75;;;14.80;60.90;;;;;;4928193;29;20039;-89
2022/12/31 10:20:32;;;;;;;77.80;29.33;;;15.00;60.60;;;;;;4921198;29;20032;-94
2022/12/31 10:23:07;;;;;;;76.95;28.23;;;14.60;61.50;;;;;;4937796;29;20051;-89
2022/12/31 10:25:45;;;;;;;73.82;29.15;;;14.60;61.30;;;;;;4921925;28;20463;-88
2022/12/31 10:28:25;;;;;;;76.43;28.23;;;14.50;61.80;;;;;;4921846;29;20031;-92
2022/12/31 10:31:09;;;;;;;74.70;30.95;;;14.60;62.00;;;;;;4921721;29;20024;-93
2022/12/31 10:34:01;;;;;;;74.45;28.90;;;14.70;60.80;;;;;;4921920;29;20031;-90
2022/12/31 10:36:47;;;;;;;65.70;26.02;;;14.50;62.10;;;;;;4937513;29;20039;-89
2022/12/31 10:39:31;;;;;;;79.97;31.70;;;14.30;62.20;;;;;;4938290;28;20082;-90
2022/12/31 10:42:05;;;;;;;74.10;29.90;;;14.00;62.70;;;;;;5025400;28;20053;-87
2022/12/31 10:44:34;;;;;;;63.55;25.20;;;13.90;63.10;;;;;;5031843;28;20041;-92
2022/12/31 10:47:31;;;;;;;71.95;29.80;;;14.10;62.40;;;;;;5025551;28;20033;-92
2022/12/31 10:50:12;;;;;;;69.68;29.65;;;14.00;63.30;;;;;;4995996;28;20027;-89
2022/12/31 10:52:56;;;;;;;65.20;28.30;;;14.20;62.60;;;;;;4982274;28;20042;-89
2022/12/31 10:55:37;;;;;;;84.32;31.92;;;14.10;62.50;;;;;;5032455;28;20030;-90
2022/12/31 10:58:06;;;;;;;75.90;30.38;;;14.30;62.20;;;;;;5021089;28;20121;-89
2022/12/31 11:01:00;;;;;;;71.45;31.00;;;14.50;62.10;;;;;;4987815;28;20086;-89
2022/12/31 11:03:47;;;;;;;76.53;31.33;;;14.30;62.80;;;;;;4979283;28;20051;-88
2022/12/31 11:06:50;;;;;;;91.47;34.67;;;14.40;62.00;;;;;;4993772;28;20387;-88
2022/12/31 11:09:16;;;;;;;99.43;35.53;;;14.30;62.50;;;;;;4992409;28;20054;-89
2022/12/31 11:12:05;;;;;;;86.88;34.83;;;14.30;62.70;;;;;;4989685;28;20031;-90
2022/12/31 11:14:36;;;;;;;98.97;36.17;;;14.10;62.80;;;;;;4917767;29;20277;-90
2022/12/31 11:17:11;;;;;;;93.13;34.65;;;14.00;63.10;;;;;;4921100;29;20040;-89
2022/12/31 11:19:58;;;;;;;102.00;36.95;;;13.90;63.30;;;;;;4921477;29;20031;-91
2022/12/31 11:22:55;;;;;;;75.57;32.53;;;13.80;63.10;;;;;;4936830;29;20040;-93
2022/12/31 11:25:52;;;;;;;71.03;29.67;;;13.50;64.60;;;;;;4920623;29;20035;-94
2022/12/31 11:28:51;;;;;;;75.45;30.02;;;13.80;63.90;;;;;;4933041;29;20020;-89
2022/12/31 11:31:36;;;;;;;76.80;30.73;;;14.20;63.00;;;;;;4933502;29;20053;-87
2022/12/31 11:34:09;;;;;;;79.00;31.35;;;14.10;62.80;;;;;;4920193;29;20038;-91
2022/12/31 11:37:05;;;;;;;85.45;33.65;;;14.20;62.90;;;;;;4920896;29;20487;-91
2022/12/31 11:39:57;;;;;;;81.80;32.08;;;14.30;62.90;;;;;;4933076;29;20138;-89
2022/12/31 11:42:38;;;;;;;86.97;32.80;;;14.50;62.60;;;;;;4922899;29;20024;-88
2022/12/31 11:45:17;;;;;;;82.63;31.58;;;14.60;62.60;;;;;;4913131;29;20123;-89
2022/12/31 11:48:05;;;;;;;85.15;32.42;;;14.80;62.10;;;;;;4921488;29;20081;-87
2022/12/31 11:51:04;;;;;;;82.20;33.05;;;14.40;62.50;;;;;;4923048;28;20023;-89
2022/12/31 11:53:30;;;;;;;90.15;34.47;;;14.50;62.60;;;;;;5002757;28;20117;-88
2022/12/31 11:56:01;;;;;;;90.30;34.42;;;14.70;62.20;;;;;;4994828;28;20129;-88
2022/12/31 11:58:28;;;;;;;91.50;33.65;;;15.00;61.50;;;;;;4978371;28;20065;-87
2022/12/31 12:01:23;;;;;;;96.55;34.03;;;15.10;60.90;;;;;;4991696;28;20066;-89
2022/12/31 12:03:49;;;;;;;93.07;35.03;;;15.20;61.00;;;;;;4920215;29;20083;-92
2022/12/31 12:06:23;;;;;;;90.93;34.45;;;15.10;60.70;;;;;;4953932;28;20051;-89
2022/12/31 12:08:55;;;;;;;84.50;35.63;;;14.90;61.30;;;;;;4586824;29;10000338;-88
2022/12/31 12:11:25;;;;;;;85.47;37.75;;;14.70;61.80;;;;;;4910667;29;20491;-88
2022/12/31 12:13:51;;;;;;;87.20;36.07;;;14.60;62.60;;;;;;4934998;29;20036;-89
2022/12/31 12:16:20;;;;;;;96.88;42.25;;;14.90;61.50;;;;;;4934209;29;20038;-90
2022/12/31 12:19:05;;;;;;;90.50;37.72;;;14.70;62.10;;;;;;4931652;29;20400;-88
2022/12/31 12:21:31;;;;;;;89.18;34.42;;;14.60;62.20;;;;;;4917629;29;20036;-92
2022/12/31 12:24:05;;;;;;;88.72;35.88;;;14.80;62.10;;;;;;4919079;29;20126;-89
2022/12/31 12:26:42;;;;;;;88.38;34.40;;;14.80;62.00;;;;;;4935079;29;20505;-91
2022/12/31 12:29:11;;;;;;;89.60;32.88;;;14.80;61.60;;;;;;4934137;29;20052;-89
2022/12/31 12:31:37;;;;;;;81.80;32.63;;;14.90;61.40;;;;;;4935295;29;20028;-89
2022/12/31 12:34:04;;;;;;;90.38;34.97;;;15.10;60.90;;;;;;4932155;29;20095;-91
2022/12/31 12:36:30;;;;;;;79.28;33.35;;;15.30;61.00;;;;;;4935117;29;20454;-88
2022/12/31 12:39:05;;;;;;;93.22;37.80;;;15.40;61.00;;;;;;4931728;29;20040;-87
2022/12/31 12:41:31;;;;;;;92.85;36.17;;;15.50;60.60;;;;;;4974869;28;20041;-93
2022/12/31 12:44:14;;;;;;;90.75;36.13;;;15.40;60.70;;;;;;4994129;28;20374;-91
2022/12/31 12:46:46;;;;;;;87.18;35.08;;;15.50;60.50;;;;;;4996778;28;20042;-87
2022/12/31 12:49:26;;;;;;;89.25;35.92;;;15.40;61.00;;;;;;5003728;28;20030;-88
2022/12/31 12:52:08;;;;;;;91.80;35.95;;;15.60;60.50;;;;;;4971287;28;20085;-94
2022/12/31 12:55:11;;;;;;;94.72;42.30;;;15.70;60.00;;;;;;4993975;28;20038;-90
2022/12/31 12:57:57;;;;;;;83.10;35.45;;;15.70;59.80;;;;;;4994559;28;20057;-91
2022/12/31 13:00:28;;;;;;;72.85;31.98;;;15.50;60.40;;;;;;5004881;28;20509;-88
2022/12/31 13:03:10;;;;;;;83.28;34.30;;;15.50;60.40;;;;;;4992707;28;20374;-95
2022/12/31 13:05:38;;;;;;;73.60;32.97;;;15.60;60.50;;;;;;4992874;28;20037;-90
2022/12/31 13:08:23;;;;;;;84.68;35.92;;;15.90;59.90;;;;;;4979995;28;20026;-89
2022/12/31 13:10:56;;;;;;;83.25;34.60;;;16.10;59.30;;;;;;4985525;28;20158;-91
2022/12/31 13:13:38;;;;;;;75.72;33.85;;;15.90;59.50;;;;;;4993282;28;20130;-90